METAR Data

Data at: 1017 UTC 21 Apr 2021

METAR for:KMTP (Montauk Arpt, NY, US)
Text:KMTP 210954Z AUTO 19005KT 11/09 A2984 RMK AO1 SLP105 T01110089
Temperature: 11.1°C ( 52°F)
Dewpoint: 8.9°C ( 48°F) [RH = 86%]
Pressure (altimeter):29.84 inches Hg (1010.6 mb) [Sea level pressure: 1010.5 mb]
Winds:from the S (190 degrees) at 6 MPH (5 knots; 2.6 m/s)
QC Flag:automated observation with no human augmentation